Time;durP1;ratioP1;P1;durP2;ratioP2;P2;SDS_P1;SDS_P2;PMS_P1;PMS_P2;Temp;Humidity;BMP_temperature;BMP_pressure;BME280_temperature;BME280_humidity;BME280_pressure;Samples;Min_cycle;Max_cycle;Signal;HPM_P1;HPM_P2
2021/09/05 00:00:04;;;;;;;4.13;3.72;;;20.80;96.70;;;;;;4960646;28;20046;-74
2021/09/05 00:02:37;;;;;;;5.75;3.97;;;21.00;96.70;;;;;;4962750;28;20426;-75
2021/09/05 00:05:06;;;;;;;4.38;3.60;;;21.10;96.70;;;;;;4955905;28;20618;-75
2021/09/05 00:07:35;;;;;;;4.65;3.45;;;21.10;96.70;;;;;;4960229;28;20050;-75
2021/09/05 00:10:06;;;;;;;5.07;3.85;;;21.00;96.70;;;;;;4951069;28;20054;-75
2021/09/05 00:12:35;;;;;;;4.38;3.60;;;21.00;96.70;;;;;;4962563;28;20070;-75
2021/09/05 00:15:04;;;;;;;4.55;3.85;;;20.90;96.70;;;;;;4954703;28;20544;-75
2021/09/05 00:17:33;;;;;;;3.63;3.17;;;20.70;96.70;;;;;;4947843;28;20070;-75
2021/09/05 00:20:01;;;;;;;4.50;3.60;;;20.70;96.70;;;;;;4961172;28;20673;-75
2021/09/05 00:22:30;;;;;;;5.43;3.17;;;20.60;96.70;;;;;;4963369;28;20045;-75
2021/09/05 00:24:59;;;;;;;5.53;3.78;;;20.50;96.70;;;;;;4957987;28;20090;-75
2021/09/05 00:27:30;;;;;;;5.30;3.67;;;20.60;96.70;;;;;;4962841;28;20047;-75
2021/09/05 00:29:59;;;;;;;6.80;3.50;;;20.50;96.70;;;;;;4955832;28;20059;-75
2021/09/05 00:32:28;;;;;;;3.88;3.22;;;20.50;96.70;;;;;;4962617;28;20073;-75
2021/09/05 00:34:56;;;;;;;3.78;3.15;;;20.40;96.70;;;;;;4958338;28;20039;-75
2021/09/05 00:37:25;;;;;;;4.63;3.53;;;20.40;96.70;;;;;;4962431;28;20043;-75
2021/09/05 00:39:53;;;;;;;4.35;3.13;;;20.50;96.70;;;;;;4958465;28;20039;-75
2021/09/05 00:42:22;;;;;;;3.92;3.15;;;20.50;96.70;;;;;;4945784;28;20567;-75
2021/09/05 00:44:53;;;;;;;5.75;4.07;;;20.50;96.70;;;;;;4959972;28;20042;-74
2021/09/05 00:47:22;;;;;;;4.20;3.33;;;20.50;96.70;;;;;;4960175;28;20125;-75
2021/09/05 00:49:50;;;;;;;5.20;3.42;;;20.40;96.70;;;;;;4959261;28;20051;-74
2021/09/05 00:52:21;;;;;;;7.75;3.70;;;20.40;96.70;;;;;;4962681;28;20145;-75
2021/09/05 00:54:49;;;;;;;6.72;3.58;;;20.30;96.70;;;;;;4960848;28;20417;-75
2021/09/05 00:57:18;;;;;;;4.07;3.40;;;20.20;96.70;;;;;;4955201;28;20062;-75
2021/09/05 00:59:49;;;;;;;4.57;3.33;;;20.20;96.70;;;;;;4961309;28;20368;-75
2021/09/05 01:02:19;;;;;;;5.22;3.78;;;20.00;96.70;;;;;;4956100;28;20089;-75
2021/09/05 01:04:49;;;;;;;5.07;3.70;;;20.10;96.70;;;;;;4958256;28;20047;-75
2021/09/05 01:07:18;;;;;;;6.28;3.72;;;20.20;96.70;;;;;;4957232;28;20090;-75
2021/09/05 01:09:49;;;;;;;4.22;3.35;;;20.20;96.70;;;;;;4958091;28;20082;-75
2021/09/05 01:12:19;;;;;;;5.13;3.67;;;20.20;96.70;;;;;;4956160;28;20521;-75
2021/09/05 01:14:47;;;;;;;5.05;3.92;;;20.20;96.70;;;;;;4953622;28;20046;-75
2021/09/05 01:17:16;;;;;;;4.13;3.53;;;20.20;96.70;;;;;;4961714;28;20493;-74
2021/09/05 01:19:50;;;;;;;5.05;3.83;;;20.20;96.70;;;;;;4962001;28;20363;-75
2021/09/05 01:22:38;;;;;;;4.10;3.40;;;20.30;96.70;;;;;;4961241;28;20049;-75
2021/09/05 01:25:46;;;;;;;5.82;4.32;;;20.20;96.70;;;;;;4966287;28;20058;-74
2021/09/05 01:28:45;;;;;;;5.05;3.40;;;20.20;96.70;;;;;;4965207;28;20058;-75
2021/09/05 01:31:43;;;;;;;5.03;3.72;;;20.10;96.70;;;;;;4920661;28;20050;-75
2021/09/05 01:34:31;;;;;;;5.07;3.72;;;20.10;96.70;;;;;;4961832;28;20194;-75
2021/09/05 01:37:31;;;;;;;4.15;3.55;;;20.10;96.70;;;;;;4957099;28;20466;-75
2021/09/05 01:40:20;;;;;;;4.65;3.80;;;20.10;96.70;;;;;;4910215;28;20418;-75
2021/09/05 01:43:17;;;;;;;5.68;4.22;;;19.90;96.70;;;;;;4950310;28;20042;-74
2021/09/05 01:46:22;;;;;;;5.70;3.72;;;19.60;96.70;;;;;;4963709;28;20541;-75
2021/09/05 01:49:19;;;;;;;5.10;3.55;;;19.50;96.70;;;;;;4912148;28;20048;-75
2021/09/05 01:52:14;;;;;;;5.20;4.30;;;19.40;96.70;;;;;;4962517;28;20149;-74
2021/09/05 01:55:00;;;;;;;4.78;4.03;;;19.50;96.70;;;;;;4962508;28;20138;-74
2021/09/05 01:57:58;;;;;;;5.22;3.72;;;19.60;96.70;;;;;;4956997;28;21124;-75
2021/09/05 02:00:53;;;;;;;5.70;3.90;;;19.80;96.70;;;;;;4951062;28;20058;-75
2021/09/05 02:03:36;;;;;;;6.82;3.97;;;19.80;96.70;;;;;;4950617;28;20106;-75
2021/09/05 02:06:26;;;;;;;5.93;3.47;;;19.60;96.70;;;;;;4966182;28;20050;-75
2021/09/05 02:09:15;;;;;;;4.97;3.25;;;19.60;96.70;;;;;;4928571;29;20058;-74
2021/09/05 02:12:02;;;;;;;5.28;3.72;;;19.80;96.70;;;;;;4929386;29;20582;-74
2021/09/05 02:14:56;;;;;;;5.30;3.70;;;19.90;96.70;;;;;;4924189;29;20055;-74
2021/09/05 02:18:01;;;;;;;5.45;3.67;;;19.90;96.70;;;;;;4919772;29;20042;-75
2021/09/05 02:24:53;;;;;;;4.35;3.00;;;19.70;96.70;;;;;;4904142;29;20040;-75
2021/09/05 02:27:53;;;;;;;4.50;3.50;;;19.60;96.70;;;;;;4902471;29;20052;-75
2021/09/05 02:30:41;;;;;;;6.68;3.28;;;19.60;96.70;;;;;;4908902;29;20103;-75
2021/09/05 02:33:39;;;;;;;5.13;3.03;;;19.60;96.70;;;;;;4874789;29;20041;-75
2021/09/05 02:36:19;;;;;;;3.60;3.17;;;19.70;96.70;;;;;;4925628;29;20328;-75
2021/09/05 02:39:31;;;;;;;3.72;3.15;;;19.60;96.70;;;;;;4910835;29;20079;-75
2021/09/05 02:42:22;;;;;;;4.95;3.20;;;19.60;96.70;;;;;;4922983;29;20543;-75
2021/09/05 02:45:17;;;;;;;3.83;3.30;;;19.50;96.70;;;;;;4923722;29;20044;-75
2021/09/05 02:48:06;;;;;;;3.72;3.28;;;19.60;96.70;;;;;;4918434;29;20096;-75
2021/09/05 02:50:52;;;;;;;5.63;3.45;;;19.60;96.70;;;;;;4930787;28;20548;-75
2021/09/05 02:53:51;;;;;;;4.78;3.42;;;19.50;96.70;;;;;;4962259;28;20061;-75
2021/09/05 02:56:42;;;;;;;4.45;3.10;;;19.50;96.70;;;;;;4975190;28;20049;-74
2021/09/05 02:59:22;;;;;;;6.43;3.28;;;19.40;96.70;;;;;;4961724;28;20317;-75
2021/09/05 03:02:24;;;;;;;4.28;3.00;;;19.50;96.70;;;;;;4946718;28;20101;-75
2021/09/05 03:05:29;;;;;;;4.60;3.50;;;19.40;96.70;;;;;;4973298;28;20413;-75
2021/09/05 03:08:17;;;;;;;4.57;3.40;;;19.30;96.70;;;;;;4963366;28;20077;-75
2021/09/05 03:11:15;;;;;;;4.75;3.58;;;19.30;96.70;;;;;;4964701;28;20538;-75
2021/09/05 03:14:05;;;;;;;5.97;4.32;;;19.40;96.70;;;;;;4976631;28;20477;-75
2021/09/05 03:16:53;;;;;;;5.88;3.67;;;19.30;96.70;;;;;;4963495;28;20556;-75
2021/09/05 03:19:53;;;;;;;4.75;3.80;;;19.30;96.70;;;;;;4961213;28;20056;-75
2021/09/05 03:22:40;;;;;;;4.88;3.70;;;19.20;96.70;;;;;;4966926;28;20061;-75
2021/09/05 03:25:23;;;;;;;6.25;4.00;;;19.10;96.70;;;;;;4981553;28;20035;-75
2021/09/05 03:28:23;;;;;;;5.18;3.85;;;19.10;96.70;;;;;;4961826;28;20058;-75
2021/09/05 03:31:10;;;;;;;5.13;3.97;;;19.10;96.70;;;;;;4960981;28;20109;-75
2021/09/05 03:34:01;;;;;;;4.90;3.55;;;19.10;96.70;;;;;;4949837;28;20571;-75
2021/09/05 03:37:56;;;;;;;6.00;3.70;;;19.20;96.70;;;;;;4904922;29;20036;-75
2021/09/05 03:40:43;;;;;;;7.13;4.00;;;19.20;96.70;;;;;;4900951;29;20617;-75
2021/09/05 03:43:30;;;;;;;4.45;3.67;;;19.00;96.70;;;;;;4905323;29;20103;-75
2021/09/05 03:46:20;;;;;;;5.45;4.10;;;19.10;96.70;;;;;;4904267;29;20128;-74
2021/09/05 03:49:13;;;;;;;5.93;3.80;;;19.10;96.70;;;;;;4904487;29;20056;-75
2021/09/05 03:51:44;;;;;;;4.78;4.28;;;19.10;96.70;;;;;;4904810;29;20054;-75
2021/09/05 03:54:17;;;;;;;4.95;4.35;;;19.10;96.70;;;;;;4886803;29;20144;-75
2021/09/05 03:56:48;;;;;;;6.80;3.92;;;19.10;96.70;;;;;;4903762;29;20444;-75
2021/09/05 03:59:17;;;;;;;6.70;3.83;;;19.00;96.70;;;;;;4904872;29;20056;-74
2021/09/05 04:01:46;;;;;;;5.47;3.78;;;18.90;96.70;;;;;;4904258;29;20044;-75
2021/09/05 04:04:23;;;;;;;4.22;3.83;;;18.90;96.70;;;;;;4903619;29;20048;-74
2021/09/05 04:07:01;;;;;;;4.75;3.75;;;18.90;96.70;;;;;;4904088;29;20059;-75
2021/09/05 04:12:51;;;;;;;7.35;3.40;;;18.70;96.70;;;;;;4962149;28;20063;-75
2021/09/05 04:15:19;;;;;;;5.57;3.38;;;18.70;96.70;;;;;;4955403;28;20058;-74
2021/09/05 04:17:48;;;;;;;4.30;3.35;;;18.80;96.70;;;;;;4958317;28;20496;-75
2021/09/05 04:20:18;;;;;;;4.50;3.38;;;18.90;96.70;;;;;;4961499;28;20043;-75
2021/09/05 04:22:46;;;;;;;6.28;3.92;;;18.90;96.70;;;;;;4960990;28;20053;-75
2021/09/05 04:25:15;;;;;;;4.45;3.30;;;18.90;96.70;;;;;;4959831;28;20077;-75
2021/09/05 04:27:44;;;;;;;4.32;3.38;;;19.00;96.70;;;;;;4947755;28;20046;-75
2021/09/05 04:30:13;;;;;;;4.43;3.30;;;18.90;96.70;;;;;;4976400;28;20104;-75
2021/09/05 04:32:42;;;;;;;4.82;3.35;;;18.90;96.70;;;;;;4978615;28;20057;-75
2021/09/05 04:35:10;;;;;;;4.40;3.40;;;18.80;96.70;;;;;;4957919;28;20102;-75
2021/09/05 04:37:40;;;;;;;4.97;3.00;;;18.80;96.70;;;;;;4960391;28;20054;-75
2021/09/05 04:40:09;;;;;;;4.15;3.35;;;18.70;96.70;;;;;;4962251;28;20137;-76
2021/09/05 04:42:38;;;;;;;5.70;3.13;;;18.70;96.70;;;;;;4985995;28;20498;-75
2021/09/05 04:45:07;;;;;;;5.70;3.08;;;18.50;96.70;;;;;;4959396;28;20042;-75
2021/09/05 04:47:36;;;;;;;3.85;3.17;;;18.40;96.70;;;;;;4969494;28;20429;-75
2021/09/05 04:50:05;;;;;;;4.18;3.78;;;18.30;96.70;;;;;;4955198;28;20066;-75
2021/09/05 04:52:36;;;;;;;4.65;3.03;;;18.50;96.70;;;;;;4965325;28;20740;-75
2021/09/05 04:55:06;;;;;;;4.18;3.72;;;18.50;96.70;;;;;;4961702;28;20051;-75
2021/09/05 04:57:35;;;;;;;3.72;3.00;;;18.50;96.70;;;;;;4948394;28;20284;-75
2021/09/05 05:00:04;;;;;;;3.47;3.17;;;18.50;96.70;;;;;;4962319;28;20034;-75
2021/09/05 05:02:33;;;;;;;5.70;3.65;;;18.60;96.70;;;;;;4964768;28;20576;-75
2021/09/05 05:05:01;;;;;;;5.80;3.38;;;18.60;96.70;;;;;;4973826;28;20111;-75
2021/09/05 05:07:30;;;;;;;4.07;3.30;;;18.60;96.70;;;;;;4964593;28;20046;-75
2021/09/05 05:09:59;;;;;;;4.32;3.25;;;18.50;96.70;;;;;;4963787;28;20058;-75
2021/09/05 05:12:29;;;;;;;5.53;3.92;;;18.60;96.70;;;;;;4966535;28;20055;-75
2021/09/05 05:14:57;;;;;;;5.65;3.50;;;18.60;96.70;;;;;;4962583;28;20093;-75
2021/09/05 05:17:25;;;;;;;5.35;3.70;;;18.60;96.70;;;;;;4960528;28;20035;-74
2021/09/05 05:19:53;;;;;;;4.95;3.78;;;18.60;96.70;;;;;;4971731;28;20058;-75
2021/09/05 05:22:22;;;;;;;4.93;3.60;;;18.50;96.70;;;;;;4959446;28;20610;-75
2021/09/05 05:24:50;;;;;;;4.88;3.47;;;18.60;96.70;;;;;;4964727;28;20050;-75
2021/09/05 05:27:18;;;;;;;5.07;3.35;;;18.70;96.70;;;;;;4965216;28;20054;-75
2021/09/05 05:29:48;;;;;;;4.45;3.75;;;18.50;96.70;;;;;;4956615;28;20406;-75
2021/09/05 05:32:16;;;;;;;4.43;3.13;;;18.50;96.70;;;;;;4964066;28;20204;-75
2021/09/05 05:34:44;;;;;;;4.90;3.20;;;18.60;96.70;;;;;;4967092;28;20050;-75
2021/09/05 05:37:13;;;;;;;3.03;2.72;;;18.60;96.70;;;;;;4963483;28;20133;-75
2021/09/05 05:39:41;;;;;;;6.35;3.67;;;18.60;96.70;;;;;;4976867;28;20102;-75
2021/09/05 05:42:09;;;;;;;5.88;3.70;;;18.60;96.70;;;;;;4958589;28;20043;-75
2021/09/05 05:44:37;;;;;;;4.03;3.60;;;18.80;96.70;;;;;;4961821;28;20741;-75
2021/09/05 05:47:07;;;;;;;5.25;4.00;;;18.80;96.70;;;;;;4960905;28;20126;-75
2021/09/05 05:49:36;;;;;;;3.50;3.20;;;18.90;96.70;;;;;;4964766;28;20117;-75
2021/09/05 05:52:05;;;;;;;3.90;3.30;;;19.00;96.70;;;;;;4970618;28;20472;-75
2021/09/05 05:54:33;;;;;;;4.63;3.38;;;19.00;96.70;;;;;;4963658;28;20043;-75
2021/09/05 05:57:01;;;;;;;3.95;2.97;;;19.10;96.70;;;;;;4961588;28;20047;-75
2021/09/05 05:59:30;;;;;;;5.13;3.33;;;19.10;96.70;;;;;;4965218;28;20085;-75
2021/09/05 06:01:59;;;;;;;3.70;3.05;;;19.10;96.70;;;;;;4963706;28;20404;-75
2021/09/05 06:04:29;;;;;;;4.32;3.30;;;19.00;96.70;;;;;;4964973;28;20294;-75
2021/09/05 06:06:59;;;;;;;4.68;3.35;;;19.10;96.70;;;;;;4962681;28;20122;-75
2021/09/05 06:09:27;;;;;;;3.72;3.15;;;19.10;96.70;;;;;;4964451;28;20454;-75
2021/09/05 06:11:55;;;;;;;4.63;3.25;;;19.20;96.70;;;;;;4966952;28;20054;-74
2021/09/05 06:14:24;;;;;;;6.57;3.35;;;19.20;96.70;;;;;;4942580;28;20041;-75
2021/09/05 06:16:52;;;;;;;4.93;3.60;;;19.30;96.70;;;;;;4967329;28;20042;-77
2021/09/05 06:19:21;;;;;;;4.63;3.78;;;19.30;96.70;;;;;;4961765;28;20046;-77
2021/09/05 06:21:50;;;;;;;3.58;3.22;;;19.40;96.70;;;;;;4956487;28;20050;-78
2021/09/05 06:24:19;;;;;;;3.92;3.30;;;19.50;96.70;;;;;;4963750;28;20417;-78
2021/09/05 06:26:47;;;;;;;5.05;3.67;;;19.50;96.70;;;;;;4964537;28;20517;-77
2021/09/05 06:29:15;;;;;;;7.20;4.03;;;19.60;96.70;;;;;;4963203;28;20035;-77
2021/09/05 06:31:44;;;;;;;5.63;3.65;;;19.60;96.70;;;;;;4964578;28;20117;-80
2021/09/05 06:34:12;;;;;;;4.75;3.97;;;19.60;96.70;;;;;;4963745;28;20060;-77
2021/09/05 06:36:40;;;;;;;5.28;4.10;;;19.50;96.70;;;;;;4962769;28;20386;-77
2021/09/05 06:39:10;;;;;;;4.97;3.53;;;19.40;96.70;;;;;;4961714;28;20864;-78
2021/09/05 06:41:39;;;;;;;5.68;4.32;;;19.40;96.70;;;;;;4945964;28;20054;-77
2021/09/05 06:44:07;;;;;;;4.25;3.78;;;19.40;96.70;;;;;;4961603;28;20043;-77
2021/09/05 06:46:35;;;;;;;5.88;4.68;;;19.30;96.70;;;;;;4963987;28;20043;-78
2021/09/05 06:49:04;;;;;;;4.43;4.03;;;19.30;96.70;;;;;;4961022;28;20134;-77
2021/09/05 06:51:33;;;;;;;5.03;4.32;;;19.50;96.70;;;;;;4958224;28;20063;-79
2021/09/05 06:54:01;;;;;;;5.53;4.60;;;19.60;96.70;;;;;;4970607;28;21094;-83
2021/09/05 06:56:31;;;;;;;7.85;4.47;;;19.60;96.70;;;;;;4964875;28;20382;-77
2021/09/05 06:59:00;;;;;;;6.68;3.85;;;19.60;96.70;;;;;;4960577;28;20098;-72
2021/09/05 07:01:28;;;;;;;6.78;4.28;;;19.70;96.70;;;;;;4965539;28;20043;-74
2021/09/05 07:03:57;;;;;;;4.80;4.20;;;19.90;96.70;;;;;;4961305;28;20441;-71
2021/09/05 07:06:25;;;;;;;5.40;4.25;;;19.90;96.70;;;;;;4967450;28;20568;-74
2021/09/05 07:08:54;;;;;;;6.10;4.70;;;20.00;96.70;;;;;;4956816;28;20078;-74
2021/09/05 07:11:22;;;;;;;4.88;4.38;;;20.10;96.70;;;;;;4960352;28;20047;-74
2021/09/05 07:13:52;;;;;;;5.97;4.43;;;20.20;96.70;;;;;;4960833;28;20066;-74
2021/09/05 07:16:20;;;;;;;5.88;4.28;;;20.30;96.70;;;;;;4958134;28;20058;-74
2021/09/05 07:18:48;;;;;;;5.97;4.82;;;20.30;96.70;;;;;;4960397;28;20046;-74
2021/09/05 07:21:16;;;;;;;6.15;4.32;;;20.40;96.70;;;;;;4965307;28;20265;-74
2021/09/05 07:23:45;;;;;;;5.70;4.10;;;20.50;96.70;;;;;;4958981;28;20337;-74
2021/09/05 07:26:13;;;;;;;5.20;4.10;;;20.60;96.70;;;;;;4958218;28;20038;-73
2021/09/05 07:28:41;;;;;;;5.28;4.15;;;20.60;96.70;;;;;;4961285;28;20074;-73
2021/09/05 07:31:11;;;;;;;6.30;4.35;;;20.70;96.70;;;;;;4958509;28;20046;-73
2021/09/05 07:33:40;;;;;;;5.40;4.15;;;20.70;96.70;;;;;;4942692;28;20075;-74
2021/09/05 07:36:08;;;;;;;5.38;4.28;;;20.80;96.70;;;;;;4963707;28;20378;-73
2021/09/05 07:38:36;;;;;;;4.88;3.83;;;20.90;96.70;;;;;;4959180;28;20078;-73
2021/09/05 07:41:04;;;;;;;5.30;3.83;;;21.00;96.70;;;;;;4963469;28;20502;-73
2021/09/05 07:43:32;;;;;;;4.65;3.97;;;21.10;96.70;;;;;;4959383;28;20039;-73
2021/09/05 07:46:01;;;;;;;8.25;4.28;;;21.10;96.70;;;;;;4959665;28;20732;-74
2021/09/05 07:48:31;;;;;;;7.30;4.53;;;21.20;96.70;;;;;;4970514;28;20439;-73
2021/09/05 07:50:59;;;;;;;5.18;4.25;;;21.30;96.70;;;;;;4955708;28;20055;-73
2021/09/05 07:53:27;;;;;;;4.88;4.32;;;21.30;96.70;;;;;;4954254;28;20484;-74
2021/09/05 07:55:56;;;;;;;5.05;3.97;;;21.30;96.70;;;;;;4959359;28;20114;-74
2021/09/05 07:58:25;;;;;;;5.97;4.35;;;21.40;96.70;;;;;;4959637;28;20047;-73
2021/09/05 08:00:53;;;;;;;4.60;4.13;;;21.60;96.70;;;;;;4958709;28;20038;-73
2021/09/05 08:03:22;;;;;;;5.55;4.18;;;21.60;96.70;;;;;;4964501;28;20102;-73
2021/09/05 08:05:52;;;;;;;5.55;4.07;;;21.70;96.70;;;;;;4961565;28;20464;-73
2021/09/05 08:08:20;;;;;;;5.50;3.85;;;21.80;96.70;;;;;;4961967;28;20035;-74
2021/09/05 08:10:48;;;;;;;4.93;4.00;;;21.90;96.70;;;;;;4949137;28;20062;-73
2021/09/05 08:13:18;;;;;;;5.40;3.90;;;21.90;96.70;;;;;;4960129;28;20509;-73
2021/09/05 08:15:46;;;;;;;5.15;4.00;;;22.00;96.70;;;;;;4959959;28;20218;-73
2021/09/05 08:18:14;;;;;;;4.70;3.83;;;22.10;96.70;;;;;;4956960;28;20481;-74
2021/09/05 08:20:43;;;;;;;5.70;4.35;;;22.20;96.70;;;;;;4962684;28;20053;-73
2021/09/05 08:23:13;;;;;;;5.30;3.83;;;22.30;96.70;;;;;;4962128;28;20513;-73
2021/09/05 08:25:41;;;;;;;6.53;3.80;;;22.40;96.70;;;;;;4949042;28;20611;-74
2021/09/05 08:28:10;;;;;;;5.43;4.03;;;22.40;96.70;;;;;;4960851;28;20055;-74
2021/09/05 08:30:39;;;;;;;6.53;4.00;;;22.50;96.70;;;;;;4962806;28;20116;-73
2021/09/05 08:33:07;;;;;;;4.03;2.97;;;22.60;96.70;;;;;;4962998;28;20432;-74
2021/09/05 08:35:35;;;;;;;5.38;3.65;;;22.70;96.70;;;;;;4965186;28;20134;-73
2021/09/05 08:38:04;;;;;;;3.75;3.35;;;22.70;96.70;;;;;;4962867;28;20039;-73
2021/09/05 08:40:37;;;;;;;4.28;3.88;;;22.90;96.70;;;;;;4961440;28;20053;-73
2021/09/05 08:43:05;;;;;;;5.25;3.58;;;23.00;96.70;;;;;;4963860;28;20063;-73
2021/09/05 08:45:34;;;;;;;4.10;3.40;;;23.10;96.70;;;;;;4944157;28;20457;-73
2021/09/05 08:48:04;;;;;;;4.32;3.50;;;23.20;96.70;;;;;;4959453;28;20497;-74
2021/09/05 08:50:33;;;;;;;4.70;3.83;;;23.20;96.70;;;;;;4961005;28;20731;-73
2021/09/05 08:53:02;;;;;;;4.70;3.58;;;23.30;96.70;;;;;;4959373;28;20043;-74
2021/09/05 08:55:30;;;;;;;4.90;3.67;;;23.40;96.70;;;;;;4978274;28;20051;-73
2021/09/05 08:58:00;;;;;;;5.22;3.70;;;23.50;96.70;;;;;;4956517;28;20134;-73
2021/09/05 09:00:29;;;;;;;4.47;3.42;;;23.60;96.70;;;;;;4962988;28;20074;-73
2021/09/05 09:02:59;;;;;;;5.43;3.88;;;23.60;96.70;;;;;;4961309;28;20079;-74
2021/09/05 09:05:33;;;;;;;4.07;3.40;;;23.70;96.70;;;;;;4958706;28;20047;-73
2021/09/05 09:08:03;;;;;;;4.72;3.10;;;23.70;96.70;;;;;;4943734;28;20044;-73
2021/09/05 09:10:32;;;;;;;4.00;3.55;;;23.80;96.70;;;;;;4958340;28;20426;-73
2021/09/05 09:13:02;;;;;;;4.43;3.17;;;23.80;96.70;;;;;;4973398;28;20125;-73
2021/09/05 09:15:32;;;;;;;20.08;15.20;;;23.90;96.70;;;;;;4961589;28;20062;-74
2021/09/05 09:18:02;;;;;;;4.25;3.72;;;24.10;96.70;;;;;;4969350;28;20039;-73
2021/09/05 09:20:40;;;;;;;4.68;3.38;;;24.30;96.70;;;;;;4962246;28;20429;-74
2021/09/05 09:23:14;;;;;;;4.13;3.72;;;24.40;96.70;;;;;;4966332;28;20443;-73
2021/09/05 09:25:58;;;;;;;5.22;3.13;;;24.40;96.70;;;;;;4962054;28;20864;-74
2021/09/05 09:28:34;;;;;;;4.18;3.10;;;24.50;96.70;;;;;;4956015;28;20054;-73
2021/09/05 09:31:13;;;;;;;5.22;3.50;;;24.50;96.70;;;;;;4963626;28;20109;-73
2021/09/05 09:33:42;;;;;;;4.15;2.95;;;24.70;96.70;;;;;;4955419;28;20198;-73
2021/09/05 09:36:14;;;;;;;4.22;2.78;;;24.80;96.70;;;;;;4963929;28;20065;-74
2021/09/05 09:38:43;;;;;;;3.03;2.72;;;24.90;96.70;;;;;;4965451;28;20513;-74
2021/09/05 09:41:13;;;;;;;4.07;2.95;;;24.90;96.70;;;;;;4963853;28;20580;-74
2021/09/05 09:43:52;;;;;;;3.40;2.85;;;25.00;96.70;;;;;;4965067;28;20513;-73
2021/09/05 09:46:22;;;;;;;4.43;3.03;;;25.20;95.70;;;;;;4962293;28;20050;-73
2021/09/05 09:48:52;;;;;;;2.88;2.58;;;25.40;95.50;;;;;;4962002;28;20060;-74
2021/09/05 09:51:21;;;;;;;4.10;2.90;;;25.70;94.70;;;;;;4963749;28;20102;-74
2021/09/05 09:53:50;;;;;;;3.78;3.30;;;25.90;93.90;;;;;;4967020;28;20470;-73
2021/09/05 09:56:24;;;;;;;4.43;2.83;;;26.00;93.40;;;;;;4973963;28;20047;-74
2021/09/05 09:58:55;;;;;;;3.40;2.78;;;26.10;92.70;;;;;;4964620;28;20046;-74
2021/09/05 10:01:25;;;;;;;4.25;3.00;;;26.00;92.80;;;;;;4962830;28;20133;-74
2021/09/05 10:03:56;;;;;;;3.45;2.70;;;26.00;92.00;;;;;;4962576;28;20117;-74
2021/09/05 10:06:26;;;;;;;6.13;3.78;;;26.00;92.20;;;;;;4963940;28;20400;-74
2021/09/05 10:08:59;;;;;;;3.55;3.10;;;26.10;92.20;;;;;;4967494;28;20047;-74
2021/09/05 10:11:28;;;;;;;3.72;2.83;;;26.10;92.10;;;;;;4963587;28;20514;-74
2021/09/05 10:13:58;;;;;;;3.40;2.80;;;26.10;92.10;;;;;;4963343;28;20047;-74
2021/09/05 10:16:27;;;;;;;2.78;2.50;;;26.30;92.10;;;;;;4963176;28;20062;-74
2021/09/05 10:19:00;;;;;;;3.33;2.90;;;26.50;91.90;;;;;;4959459;28;20047;-74
2021/09/05 10:21:30;;;;;;;4.25;3.00;;;26.50;89.30;;;;;;4962214;28;20571;-74
2021/09/05 10:23:58;;;;;;;3.72;3.05;;;26.80;88.60;;;;;;4963542;28;20339;-74
2021/09/05 10:26:27;;;;;;;8.20;2.80;;;26.90;87.40;;;;;;4963123;28;20055;-74
2021/09/05 10:28:58;;;;;;;3.63;2.50;;;27.30;86.50;;;;;;4979096;28;20640;-74
2021/09/05 10:31:28;;;;;;;3.85;3.15;;;27.70;85.80;;;;;;4965856;28;20086;-74
2021/09/05 10:33:58;;;;;;;3.17;2.88;;;27.90;84.70;;;;;;4964285;28;20042;-74
2021/09/05 10:36:27;;;;;;;3.03;2.53;;;28.00;84.60;;;;;;4961951;28;20527;-74
2021/09/05 10:39:06;;;;;;;2.95;2.65;;;28.10;84.20;;;;;;4962280;28;20043;-74
2021/09/05 10:41:47;;;;;;;2.97;2.67;;;28.10;84.20;;;;;;4956053;28;20489;-74
2021/09/05 10:44:18;;;;;;;3.25;2.40;;;28.40;83.60;;;;;;4961494;28;20502;-74
2021/09/05 10:46:49;;;;;;;3.75;2.78;;;28.30;83.50;;;;;;4970530;28;20063;-74
2021/09/05 10:49:35;;;;;;;2.70;2.40;;;28.00;83.60;;;;;;4957949;28;20059;-74
2021/09/05 10:52:04;;;;;;;4.32;3.30;;;27.90;83.20;;;;;;4964314;28;20051;-74
2021/09/05 10:54:43;;;;;;;2.88;2.45;;;28.10;83.90;;;;;;4956693;28;20035;-73
2021/09/05 10:57:31;;;;;;;3.08;2.63;;;28.00;83.30;;;;;;4963707;28;20105;-74
2021/09/05 11:00:08;;;;;;;2.85;2.65;;;28.10;83.40;;;;;;4988576;28;20396;-74
2021/09/05 11:03:07;;;;;;;3.42;2.50;;;28.10;83.10;;;;;;4961312;28;20125;-73
2021/09/05 11:05:35;;;;;;;4.18;2.55;;;28.10;82.80;;;;;;4962433;28;20053;-74
2021/09/05 11:08:24;;;;;;;2.72;2.35;;;28.00;82.20;;;;;;4961846;28;20395;-74
2021/09/05 11:10:54;;;;;;;4.97;2.67;;;28.00;82.50;;;;;;4963251;28;20058;-74
2021/09/05 11:13:51;;;;;;;3.53;2.72;;;28.50;82.90;;;;;;4958547;28;20050;-74
2021/09/05 11:16:21;;;;;;;2.78;2.55;;;28.70;81.70;;;;;;4920148;28;20271;-74
2021/09/05 11:18:50;;;;;;;3.30;2.80;;;28.70;81.50;;;;;;4957319;28;20066;-74
2021/09/05 11:21:23;;;;;;;3.53;2.67;;;28.80;81.40;;;;;;4966439;28;20041;-74
2021/09/05 11:23:52;;;;;;;3.53;2.97;;;29.10;80.70;;;;;;4959257;28;20058;-74
2021/09/05 11:26:25;;;;;;;3.20;2.50;;;29.40;80.20;;;;;;4968030;28;20511;-74
2021/09/05 11:28:53;;;;;;;3.13;2.65;;;29.60;79.30;;;;;;4965341;28;20145;-74
2021/09/05 11:31:23;;;;;;;2.85;2.50;;;29.50;78.90;;;;;;4960922;28;20094;-74
2021/09/05 11:33:52;;;;;;;5.40;2.60;;;29.30;79.60;;;;;;4961774;28;20050;-74
2021/09/05 11:36:22;;;;;;;3.17;2.70;;;29.40;79.10;;;;;;4968937;28;20050;-74
2021/09/05 11:38:54;;;;;;;2.90;2.60;;;29.50;78.10;;;;;;4958582;28;20038;-74
2021/09/05 11:41:25;;;;;;;2.80;2.55;;;29.60;78.00;;;;;;4957866;28;20042;-74
2021/09/05 11:43:55;;;;;;;2.80;2.50;;;29.90;77.60;;;;;;4962913;28;20465;-74
2021/09/05 11:46:25;;;;;;;2.97;2.60;;;30.20;77.30;;;;;;4965083;28;20071;-74
2021/09/05 11:48:55;;;;;;;3.13;2.50;;;30.10;76.90;;;;;;4961298;28;20045;-73
2021/09/05 11:51:25;;;;;;;4.63;2.85;;;30.30;77.10;;;;;;4963102;28;20051;-74
2021/09/05 11:53:58;;;;;;;3.22;2.92;;;30.20;77.50;;;;;;4961578;28;20073;-74
2021/09/05 11:56:29;;;;;;;3.85;2.80;;;30.50;77.40;;;;;;4973200;28;20043;-74
2021/09/05 11:59:09;;;;;;;2.95;2.63;;;30.70;77.10;;;;;;4964759;28;20113;-74
2021/09/05 12:01:45;;;;;;;2.90;2.65;;;30.90;76.80;;;;;;4972151;28;20054;-74
2021/09/05 12:04:14;;;;;;;5.68;3.25;;;31.00;76.40;;;;;;4956001;28;20069;-74
2021/09/05 12:06:44;;;;;;;4.10;2.83;;;31.00;75.80;;;;;;4963442;28;20090;-74
2021/09/05 12:09:13;;;;;;;3.22;2.92;;;31.00;75.30;;;;;;4964484;28;20039;-74
2021/09/05 12:12:03;;;;;;;3.80;3.25;;;31.10;73.80;;;;;;4957053;28;20505;-73
2021/09/05 12:14:34;;;;;;;3.50;2.80;;;31.20;73.70;;;;;;4959275;28;20764;-74
2021/09/05 12:17:18;;;;;;;4.10;2.90;;;31.40;74.20;;;;;;4960301;28;20043;-74
2021/09/05 12:19:54;;;;;;;3.63;2.75;;;31.50;74.60;;;;;;4961315;28;20436;-74
2021/09/05 12:22:22;;;;;;;4.00;3.03;;;31.60;73.90;;;;;;4961634;28;20043;-74
2021/09/05 12:24:57;;;;;;;3.08;2.80;;;31.40;74.10;;;;;;4960709;28;21244;-74
2021/09/05 12:27:25;;;;;;;4.72;2.75;;;31.00;74.50;;;;;;4962580;28;20543;-74
2021/09/05 12:29:54;;;;;;;4.75;3.22;;;30.90;75.60;;;;;;4956827;28;20071;-73
2021/09/05 12:32:24;;;;;;;3.72;2.45;;;30.90;75.80;;;;;;4963360;28;20049;-74
2021/09/05 12:34:59;;;;;;;3.00;2.70;;;31.00;75.70;;;;;;4954963;28;20050;-73
2021/09/05 12:37:27;;;;;;;3.28;2.63;;;31.00;75.20;;;;;;4997460;28;20054;-74
2021/09/05 12:40:14;;;;;;;3.13;2.80;;;31.10;75.30;;;;;;4959967;28;20468;-74
2021/09/05 12:42:46;;;;;;;3.25;2.75;;;31.00;75.30;;;;;;4960690;28;20042;-74
2021/09/05 12:45:15;;;;;;;4.57;2.80;;;30.90;75.20;;;;;;4963454;28;20051;-75
2021/09/05 12:47:46;;;;;;;4.75;3.10;;;31.00;75.40;;;;;;4976454;28;20542;-74
2021/09/05 12:50:20;;;;;;;3.88;2.80;;;30.90;75.20;;;;;;4945462;28;20054;-74
2021/09/05 12:52:49;;;;;;;4.63;2.72;;;30.90;75.90;;;;;;4961014;28;20053;-74
2021/09/05 12:55:20;;;;;;;4.15;2.63;;;31.00;74.90;;;;;;4961635;28;20497;-74
2021/09/05 12:57:49;;;;;;;3.25;2.78;;;30.90;74.70;;;;;;4973434;28;20170;-71
2021/09/05 13:00:18;;;;;;;3.00;2.70;;;31.00;75.30;;;;;;4961731;28;20720;-71
2021/09/05 13:02:49;;;;;;;2.38;2.17;;;31.00;74.40;;;;;;4971762;28;20042;-72
2021/09/05 13:05:17;;;;;;;4.65;2.58;;;30.90;74.20;;;;;;4962655;28;20055;-71
2021/09/05 13:07:46;;;;;;;3.97;2.40;;;30.60;75.10;;;;;;4956575;28;20105;-71
2021/09/05 13:10:14;;;;;;;4.30;2.65;;;30.70;74.70;;;;;;4960526;28;20105;-72
2021/09/05 13:12:43;;;;;;;3.20;2.50;;;31.10;74.20;;;;;;4964942;28;20138;-72
2021/09/05 13:15:11;;;;;;;3.08;2.78;;;31.30;73.80;;;;;;4966196;28;20135;-71
2021/09/05 13:17:41;;;;;;;3.00;2.70;;;31.60;74.20;;;;;;4974263;28;20504;-71
2021/09/05 13:20:12;;;;;;;3.95;2.60;;;31.80;73.60;;;;;;4962229;28;20038;-71
2021/09/05 13:22:41;;;;;;;2.83;2.60;;;31.90;73.60;;;;;;4960548;28;20454;-71
2021/09/05 13:25:10;;;;;;;3.10;2.80;;;31.90;72.90;;;;;;4964086;28;20571;-71
2021/09/05 13:27:40;;;;;;;3.60;2.80;;;31.90;73.80;;;;;;4959449;28;20102;-71
2021/09/05 13:30:12;;;;;;;2.88;2.58;;;31.80;73.50;;;;;;4967234;28;20058;-71